Terminal Aerodrome Forecast
Issued by NWS Des Moines, IA

Home | Current Version | Previous Version | Text Only | Print | Product List | Glossary On
Versions: 1 2 3 4 5 6 7 8 9 10 11 12 13 14 15 16 17 18 19 20 21 22 23 24 25 26 27 28 29 30
000
FTUS43 KDMX 301300 AAA
TAFDSM
TAF AMD
KDSM 301345Z 3014/0112 VRB03KT 3SM BR OVC003
     FM301700 11008KT 5SM BR OVC008
     FM301900 12012KT P6SM SCT007 BKN090
     FM010300 12013KT P6SM VCSH BKN025 BKN080
     FM010700 13013KT 5SM -RA VCTS BKN021CB OVC090=

USA.gov is the U.S. government's official web portal to all federal, state and local government web resources and services.